Terminal Aerodrome Forecast
Issued by NWS

Home | Current Version | Previous Version | Text Only | Print | Product List | Glossary On
Versions: 1 2 3 4 5 6 7 8 9 10 11 12
000
FTUS45 KVEF 202300
TAFBIH
TAF
KBIH 202320Z 2100/2124 16014G22KT P6SM FEW110
     FM210200 15011KT P6SM FEW110
     FM210900 32007KT P6SM SKC
     FM211900 16012G20KT P6SM FEW110=

USA.gov is the U.S. government's official web portal to all federal, state and local government web resources and services.